Time;durP1;ratioP1;P1;durP2;ratioP2;P2;SDS_P1;SDS_P2;PMS_P1;PMS_P2;Temp;Humidity;BMP_temperature;BMP_pressure;BME280_temperature;BME280_humidity;BME280_pressure;Samples;Min_cycle;Max_cycle;Signal;HPM_P1;HPM_P2
2022/04/30 00:02:08;;;;;;;34.10;23.52;;;7.10;99.90;;;;;;5008010;28;20060;-74
2022/04/30 00:04:40;;;;;;;39.00;26.48;;;7.10;99.90;;;;;;5012928;28;20053;-75
2022/04/30 00:07:08;;;;;;;45.90;26.83;;;7.20;99.90;;;;;;4995005;28;20133;-73
2022/04/30 00:09:38;;;;;;;38.28;23.98;;;7.20;99.90;;;;;;4998122;28;20104;-74
2022/04/30 00:12:05;;;;;;;35.72;23.98;;;7.00;99.90;;;;;;4994765;28;20042;-73
2022/04/30 00:14:32;;;;;;;37.85;23.70;;;6.90;99.90;;;;;;4995125;28;20053;-72
2022/04/30 00:16:59;;;;;;;37.03;23.90;;;6.90;99.90;;;;;;4995037;28;20470;-72
2022/04/30 00:19:27;;;;;;;37.92;24.77;;;6.90;99.90;;;;;;4994330;28;20065;-73
2022/04/30 00:21:53;;;;;;;36.88;24.38;;;6.90;99.90;;;;;;4994259;28;20848;-74
2022/04/30 00:24:20;;;;;;;41.42;23.88;;;6.80;99.90;;;;;;4997713;28;20547;-73
2022/04/30 00:26:47;;;;;;;40.83;23.92;;;6.70;99.90;;;;;;5004440;28;20147;-73
2022/04/30 00:29:14;;;;;;;40.85;24.35;;;6.70;99.90;;;;;;5014633;28;20056;-75
2022/04/30 00:31:41;;;;;;;39.33;23.80;;;6.70;99.90;;;;;;5012390;28;20037;-74
2022/04/30 00:34:08;;;;;;;34.08;22.80;;;6.80;99.90;;;;;;5014385;28;20061;-75
2022/04/30 00:36:36;;;;;;;36.40;24.10;;;6.80;99.90;;;;;;5005541;28;20046;-75
2022/04/30 00:39:04;;;;;;;34.13;21.23;;;6.70;99.90;;;;;;4996080;28;20177;-75
2022/04/30 00:41:33;;;;;;;39.55;23.58;;;6.80;99.90;;;;;;4991684;28;20447;-74
2022/04/30 00:44:01;;;;;;;39.45;22.88;;;6.70;99.90;;;;;;4994182;28;20061;-73
2022/04/30 00:46:28;;;;;;;39.42;24.02;;;6.60;99.90;;;;;;4996344;28;20038;-73
2022/04/30 00:48:57;;;;;;;38.42;23.58;;;6.60;99.90;;;;;;4996438;28;20104;-72
2022/04/30 00:51:26;;;;;;;37.17;23.15;;;6.60;99.90;;;;;;4976389;28;20682;-75
2022/04/30 00:53:54;;;;;;;37.88;22.48;;;6.70;99.90;;;;;;4982496;28;20087;-73
2022/04/30 00:56:36;;;;;;;37.55;22.52;;;6.60;99.90;;;;;;4994023;28;20541;-74
2022/04/30 00:59:05;;;;;;;35.42;21.50;;;6.50;99.90;;;;;;4993085;28;20046;-74
2022/04/30 01:01:34;;;;;;;33.80;20.35;;;6.50;99.90;;;;;;4994869;28;20054;-74
2022/04/30 01:04:33;;;;;;;35.78;21.90;;;6.50;99.90;;;;;;4993389;28;20573;-74
2022/04/30 01:07:06;;;;;;;42.97;23.77;;;6.50;99.90;;;;;;4994924;28;20247;-73
2022/04/30 01:09:35;;;;;;;38.78;24.15;;;6.50;99.90;;;;;;4994713;28;20112;-73
2022/04/30 01:12:10;;;;;;;40.65;25.58;;;6.40;99.90;;;;;;4992818;28;20049;-75
2022/04/30 01:14:42;;;;;;;44.85;28.42;;;6.40;99.90;;;;;;4991946;28;20049;-74
2022/04/30 01:17:11;;;;;;;43.25;28.90;;;6.30;99.90;;;;;;4991752;28;20108;-74
2022/04/30 01:19:41;;;;;;;41.38;29.42;;;6.40;99.90;;;;;;4977216;28;20096;-74
2022/04/30 01:22:13;;;;;;;44.30;29.45;;;6.50;99.90;;;;;;4993224;28;20038;-75
2022/04/30 01:24:41;;;;;;;42.00;29.60;;;6.50;99.90;;;;;;4992145;28;20527;-75
2022/04/30 01:27:08;;;;;;;49.63;30.83;;;6.40;99.90;;;;;;4991369;28;20358;-75
2022/04/30 01:29:37;;;;;;;44.40;28.58;;;6.40;99.90;;;;;;4993641;28;20143;-74
2022/04/30 01:37:38;;;;;;;;;;;6.40;99.90;;;;;;4995857;28;20053;-75
2022/04/30 01:40:07;;;;;;;40.80;30.20;;;6.50;99.90;;;;;;4994260;28;19921;-75
2022/04/30 01:42:40;;;;;;;49.50;33.22;;;6.50;99.90;;;;;;4990863;28;20073;-74
2022/04/30 01:45:08;;;;;;;47.75;31.52;;;6.50;99.90;;;;;;4993926;28;20689;-75
2022/04/30 01:47:38;;;;;;;42.10;28.38;;;6.50;99.90;;;;;;4995269;28;20547;-74
2022/04/30 01:50:07;;;;;;;40.40;28.42;;;6.50;99.90;;;;;;4995131;28;20124;-73
2022/04/30 01:52:34;;;;;;;38.70;29.35;;;6.50;99.90;;;;;;4992535;28;20046;-74
2022/04/30 01:55:01;;;;;;;58.88;31.02;;;6.40;99.90;;;;;;4992120;28;20385;-74
2022/04/30 01:57:28;;;;;;;42.00;29.48;;;6.40;99.90;;;;;;4991503;28;20041;-72
2022/04/30 01:59:56;;;;;;;43.58;29.98;;;6.50;99.90;;;;;;4996985;28;20589;-72
2022/04/30 02:02:29;;;;;;;45.92;29.27;;;6.50;99.90;;;;;;5012771;28;20095;-71
2022/04/30 02:05:00;;;;;;;41.75;28.38;;;6.40;99.90;;;;;;5014599;28;20045;-74
2022/04/30 02:07:28;;;;;;;43.60;28.05;;;6.40;99.90;;;;;;4896182;29;20490;-73
2022/04/30 02:09:58;;;;;;;45.08;28.63;;;6.40;99.90;;;;;;4881540;29;20048;-72
2022/04/30 02:12:29;;;;;;;43.45;28.20;;;6.50;99.90;;;;;;4973128;28;20038;-74
2022/04/30 02:14:57;;;;;;;42.45;25.83;;;6.50;99.90;;;;;;4972982;28;20475;-72
2022/04/30 02:17:26;;;;;;;42.00;26.40;;;6.40;99.90;;;;;;4988525;28;20046;-71
2022/04/30 02:22:40;;;;;;;33.47;25.17;;;6.40;99.90;;;;;;4993523;28;20152;-73
2022/04/30 02:25:11;;;;;;;39.72;24.27;;;6.40;99.90;;;;;;4992020;28;20049;-72
2022/04/30 02:27:39;;;;;;;41.17;25.58;;;6.30;99.90;;;;;;4992269;28;20053;-73
2022/04/30 02:30:07;;;;;;;32.10;22.85;;;6.30;99.90;;;;;;4994515;28;20053;-74
2022/04/30 02:32:42;;;;;;;36.85;22.92;;;6.30;99.90;;;;;;4992693;28;20108;-74
2022/04/30 02:35:09;;;;;;;36.33;24.38;;;6.20;99.90;;;;;;4993905;28;20110;-74
2022/04/30 02:37:36;;;;;;;40.65;24.48;;;6.20;99.90;;;;;;4994677;28;20042;-73
2022/04/30 02:40:04;;;;;;;44.55;26.27;;;6.20;99.90;;;;;;4994423;28;20429;-72
2022/04/30 02:42:31;;;;;;;48.00;26.55;;;6.30;99.90;;;;;;4990940;28;20256;-71
2022/04/30 02:44:58;;;;;;;43.08;25.27;;;6.20;99.90;;;;;;4993668;28;20049;-72
2022/04/30 02:47:24;;;;;;;40.90;27.00;;;6.20;99.90;;;;;;4993015;28;20053;-72
2022/04/30 02:49:51;;;;;;;41.33;28.08;;;6.20;99.90;;;;;;4976713;28;20054;-71
2022/04/30 02:52:19;;;;;;;38.35;25.45;;;6.20;99.90;;;;;;4991571;28;20038;-72
2022/04/30 02:54:46;;;;;;;36.50;24.08;;;6.10;99.90;;;;;;4995275;28;20057;-70
2022/04/30 02:57:13;;;;;;;41.22;26.27;;;6.00;99.90;;;;;;5010564;28;20932;-72
2022/04/30 02:59:55;;;;;;;48.63;26.92;;;6.10;99.90;;;;;;4996161;28;20428;-72
2022/04/30 03:02:42;;;;;;;42.90;27.85;;;6.10;99.90;;;;;;4990068;28;20244;-72
2022/04/30 03:05:09;;;;;;;44.13;26.20;;;6.10;99.90;;;;;;4992203;28;20802;-74
2022/04/30 03:07:41;;;;;;;47.75;26.55;;;6.10;99.90;;;;;;4991184;28;20152;-74
2022/04/30 03:10:08;;;;;;;52.08;28.38;;;6.10;99.90;;;;;;5001523;28;20666;-72
2022/04/30 03:12:36;;;;;;;45.35;27.50;;;6.20;99.90;;;;;;4993379;28;20077;-73
2022/04/30 03:15:03;;;;;;;49.70;28.92;;;6.10;99.90;;;;;;4990316;28;20565;-72
2022/04/30 03:23:01;;;;;;;46.35;28.45;;;5.90;99.90;;;;;;4990853;28;20049;-73
2022/04/30 03:25:28;;;;;;;48.97;31.05;;;6.00;99.90;;;;;;4988896;28;20108;-74
2022/04/30 03:27:55;;;;;;;45.35;30.13;;;5.90;99.90;;;;;;4993044;28;20046;-74
2022/04/30 03:30:22;;;;;;;41.97;28.40;;;5.90;99.90;;;;;;4991730;28;20081;-73
2022/04/30 03:32:50;;;;;;;46.53;29.75;;;5.80;99.90;;;;;;4975847;28;20160;-73
2022/04/30 03:35:17;;;;;;;49.47;30.10;;;5.70;99.90;;;;;;4991973;28;20200;-74
2022/04/30 03:37:43;;;;;;;45.42;29.35;;;5.90;99.90;;;;;;4993375;28;20078;-74
2022/04/30 03:40:10;;;;;;;46.97;30.00;;;5.90;99.90;;;;;;4997207;28;20145;-72
2022/04/30 03:42:37;;;;;;;52.95;30.30;;;5.90;99.90;;;;;;4976277;28;20049;-74
2022/04/30 03:45:05;;;;;;;41.83;28.45;;;6.00;99.90;;;;;;4995211;28;20057;-74
2022/04/30 03:47:32;;;;;;;43.60;26.45;;;5.90;99.90;;;;;;4973131;28;20043;-73
2022/04/30 03:50:01;;;;;;;50.60;27.45;;;6.00;99.90;;;;;;4993003;28;20061;-72
2022/04/30 03:52:30;;;;;;;40.42;24.33;;;6.00;99.90;;;;;;4996896;28;20508;-72
2022/04/30 03:54:57;;;;;;;42.42;27.58;;;6.00;99.90;;;;;;4994955;28;20057;-73
2022/04/30 03:57:25;;;;;;;47.92;26.52;;;5.90;99.90;;;;;;4996144;28;20049;-74
2022/04/30 03:59:52;;;;;;;48.22;26.65;;;5.90;99.90;;;;;;4996528;28;20116;-73
2022/04/30 04:02:19;;;;;;;46.90;25.15;;;6.00;99.90;;;;;;4997170;28;20061;-74
2022/04/30 04:04:46;;;;;;;45.25;27.55;;;6.10;99.90;;;;;;4996623;28;20042;-74
2022/04/30 04:07:14;;;;;;;42.70;26.92;;;6.10;99.90;;;;;;4994243;28;20049;-73
2022/04/30 04:09:41;;;;;;;48.33;27.33;;;6.10;99.90;;;;;;4997377;28;20049;-73
2022/04/30 04:12:09;;;;;;;40.90;27.25;;;6.20;99.90;;;;;;4994880;28;20119;-72
2022/04/30 04:17:39;;;;;;;41.47;27.60;;;6.10;99.90;;;;;;4995389;28;20513;-73
2022/04/30 04:20:10;;;;;;;41.28;27.05;;;6.10;99.90;;;;;;4996011;28;20058;-73
2022/04/30 04:22:37;;;;;;;60.30;31.63;;;6.00;99.90;;;;;;4994220;28;20088;-74
2022/04/30 04:27:55;;;;;;;49.53;28.80;;;5.90;99.90;;;;;;4996428;28;20046;-74
2022/04/30 04:30:23;;;;;;;53.65;30.83;;;5.80;99.90;;;;;;4996891;28;20348;-73
2022/04/30 04:32:50;;;;;;;69.07;33.35;;;5.80;99.90;;;;;;4994242;28;20144;-73
2022/04/30 04:35:17;;;;;;;59.67;31.88;;;5.90;99.90;;;;;;4996113;28;20057;-74
2022/04/30 04:37:44;;;;;;;46.83;28.83;;;6.00;99.90;;;;;;4995521;28;20054;-72
2022/04/30 04:40:12;;;;;;;55.97;31.05;;;5.90;99.90;;;;;;5008067;28;20122;-73
2022/04/30 04:42:40;;;;;;;50.20;32.83;;;5.90;99.90;;;;;;4998643;28;20120;-73
2022/04/30 04:45:08;;;;;;;54.25;31.02;;;6.00;99.90;;;;;;4978001;28;20064;-72
2022/04/30 04:47:36;;;;;;;48.15;30.50;;;6.10;99.90;;;;;;4975252;28;20050;-73
2022/04/30 04:50:04;;;;;;;51.03;28.20;;;6.00;99.90;;;;;;4943607;28;20079;-71
2022/04/30 04:52:31;;;;;;;59.67;30.70;;;6.00;99.90;;;;;;5009828;28;20041;-74
2022/04/30 04:54:58;;;;;;;50.67;30.85;;;6.00;99.90;;;;;;4994018;28;20116;-73
2022/04/30 04:57:25;;;;;;;54.53;32.25;;;6.00;99.90;;;;;;4996565;28;20543;-74
2022/04/30 04:59:53;;;;;;;54.90;30.40;;;6.00;99.90;;;;;;4995802;28;20054;-73
2022/04/30 05:02:21;;;;;;;51.63;30.65;;;6.10;99.90;;;;;;4994857;28;20110;-72
2022/04/30 05:04:48;;;;;;;55.10;31.30;;;6.00;99.90;;;;;;4994784;28;20407;-74
2022/04/30 05:07:15;;;;;;;47.75;29.40;;;6.10;99.90;;;;;;4978936;28;20042;-71
2022/04/30 05:09:41;;;;;;;45.50;27.50;;;6.20;99.90;;;;;;4978700;28;20666;-72
2022/04/30 05:12:09;;;;;;;47.70;28.35;;;6.10;99.90;;;;;;4997929;28;20109;-72
2022/04/30 05:14:35;;;;;;;46.35;29.95;;;6.10;99.90;;;;;;4976350;28;20328;-70
2022/04/30 05:17:04;;;;;;;51.63;30.45;;;6.10;99.90;;;;;;4994842;28;20041;-70
2022/04/30 05:19:32;;;;;;;50.55;29.55;;;6.10;99.90;;;;;;4996662;28;20112;-73
2022/04/30 05:21:59;;;;;;;49.25;28.75;;;6.00;99.90;;;;;;4994427;28;20057;-72
2022/04/30 05:24:26;;;;;;;50.25;29.42;;;5.90;99.90;;;;;;4992562;28;20046;-72
2022/04/30 05:26:53;;;;;;;52.70;30.83;;;6.00;99.90;;;;;;4995565;28;20049;-74
2022/04/30 05:29:20;;;;;;;50.75;28.80;;;6.10;99.90;;;;;;4993948;28;20087;-73
2022/04/30 05:31:46;;;;;;;49.35;28.58;;;6.00;99.90;;;;;;4995754;28;20042;-73
2022/04/30 05:34:13;;;;;;;52.50;29.88;;;6.00;99.90;;;;;;4995121;28;20169;-73
2022/04/30 05:36:40;;;;;;;48.53;27.95;;;6.10;99.90;;;;;;4994288;28;20058;-74
2022/04/30 05:39:07;;;;;;;50.17;28.75;;;6.00;99.90;;;;;;4994442;28;20054;-74
2022/04/30 05:41:33;;;;;;;49.55;26.63;;;6.00;99.90;;;;;;5002202;28;20057;-74
2022/04/30 05:44:00;;;;;;;44.70;27.60;;;6.10;99.90;;;;;;4991902;28;20053;-74
2022/04/30 05:46:27;;;;;;;39.58;22.55;;;6.30;99.90;;;;;;4993413;28;20265;-73
2022/04/30 05:48:54;;;;;;;43.13;25.08;;;6.30;99.90;;;;;;4994834;28;20050;-72
2022/04/30 05:51:21;;;;;;;38.25;23.92;;;6.20;99.90;;;;;;4973946;28;20100;-74
2022/04/30 05:53:47;;;;;;;42.28;24.20;;;6.20;99.90;;;;;;4974990;28;20105;-74
2022/04/30 05:56:14;;;;;;;35.03;21.02;;;6.20;99.90;;;;;;4992166;28;20144;-72
2022/04/30 05:58:41;;;;;;;37.95;21.63;;;6.20;99.90;;;;;;4995157;28;20364;-74
2022/04/30 06:01:08;;;;;;;32.30;21.33;;;6.30;99.90;;;;;;4994987;28;20365;-72
2022/04/30 06:03:36;;;;;;;34.03;20.60;;;6.40;99.90;;;;;;4993626;28;20111;-73
2022/04/30 06:06:03;;;;;;;39.08;20.48;;;6.30;99.90;;;;;;4995003;28;20034;-73
2022/04/30 06:08:30;;;;;;;33.28;20.45;;;6.30;99.90;;;;;;4995310;28;20057;-73
2022/04/30 06:10:56;;;;;;;39.45;22.40;;;6.30;99.90;;;;;;4996719;28;20465;-72
2022/04/30 06:13:24;;;;;;;33.78;20.58;;;6.40;99.90;;;;;;4995236;28;20850;-72
2022/04/30 06:15:51;;;;;;;36.10;22.50;;;6.40;99.90;;;;;;4995023;28;20057;-72
2022/04/30 06:18:20;;;;;;;37.88;19.67;;;6.50;99.90;;;;;;4978217;28;20046;-72
2022/04/30 06:20:46;;;;;;;29.15;18.75;;;6.50;99.90;;;;;;4994765;28;20479;-72
2022/04/30 06:23:17;;;;;;;29.77;19.80;;;6.40;99.90;;;;;;4991983;28;20077;-72
2022/04/30 06:25:45;;;;;;;33.78;21.35;;;6.50;99.90;;;;;;4973922;28;20166;-72
2022/04/30 06:28:15;;;;;;;34.78;19.75;;;6.50;99.90;;;;;;4994042;28;20045;-72
2022/04/30 06:30:42;;;;;;;31.75;20.10;;;6.60;99.90;;;;;;4992590;28;20053;-72
2022/04/30 06:33:09;;;;;;;30.48;22.00;;;6.40;99.90;;;;;;4992872;28;20057;-71
2022/04/30 06:35:37;;;;;;;28.17;19.83;;;6.50;99.90;;;;;;4995111;28;20046;-72
2022/04/30 06:38:04;;;;;;;31.00;20.70;;;6.40;99.90;;;;;;4994678;28;20792;-72
2022/04/30 06:40:34;;;;;;;29.67;22.42;;;6.40;99.90;;;;;;4976012;28;20046;-71
2022/04/30 06:43:02;;;;;;;40.22;23.13;;;6.40;99.90;;;;;;4988974;28;20061;-71
2022/04/30 06:45:29;;;;;;;34.40;22.65;;;6.40;99.90;;;;;;4993327;28;20076;-72
2022/04/30 06:47:56;;;;;;;109.43;52.28;;;6.50;99.90;;;;;;4994884;28;20053;-73
2022/04/30 06:50:23;;;;;;;177.95;81.57;;;6.60;99.90;;;;;;4992903;28;20053;-72
2022/04/30 06:58:44;;;;;;;44.95;28.38;;;6.40;99.90;;;;;;4993037;28;19929;-71
2022/04/30 07:04:04;;;;;;;43.50;25.27;;;6.20;99.90;;;;;;4992162;28;20145;-72
2022/04/30 07:06:34;;;;;;;40.20;24.95;;;6.30;99.90;;;;;;4992594;28;20510;-72
2022/04/30 07:09:03;;;;;;;44.13;26.02;;;6.50;99.90;;;;;;4997248;28;20196;-72
2022/04/30 07:11:30;;;;;;;34.20;24.15;;;6.60;99.90;;;;;;5007875;28;20305;-72
2022/04/30 07:13:57;;;;;;;35.38;26.08;;;6.60;99.90;;;;;;4974076;28;20495;-71
2022/04/30 07:16:24;;;;;;;36.70;24.15;;;6.60;99.90;;;;;;4984788;28;20109;-72
2022/04/30 07:18:51;;;;;;;40.08;27.30;;;6.70;99.90;;;;;;4999170;28;20057;-72
2022/04/30 07:21:18;;;;;;;37.75;28.85;;;6.60;99.90;;;;;;4994095;28;20544;-72
2022/04/30 07:23:44;;;;;;;44.03;29.92;;;6.60;99.90;;;;;;4995691;28;20057;-70
2022/04/30 07:26:11;;;;;;;47.92;27.65;;;6.60;99.90;;;;;;4995505;28;20401;-72
2022/04/30 07:28:38;;;;;;;35.65;27.10;;;6.70;99.90;;;;;;4998914;28;20046;-71
2022/04/30 07:31:05;;;;;;;40.67;28.73;;;6.70;99.90;;;;;;4995995;28;20058;-72
2022/04/30 07:33:32;;;;;;;46.08;31.48;;;6.70;99.90;;;;;;4960493;28;20408;-72
2022/04/30 07:36:00;;;;;;;40.42;27.88;;;6.80;99.90;;;;;;4998325;28;20133;-74
2022/04/30 07:38:27;;;;;;;43.25;27.95;;;6.60;99.90;;;;;;4997451;28;20747;-74
2022/04/30 07:40:54;;;;;;;43.45;25.70;;;6.40;99.90;;;;;;4994733;28;20065;-73
2022/04/30 07:43:21;;;;;;;37.00;24.38;;;6.50;99.90;;;;;;4994928;28;20095;-73
2022/04/30 07:45:48;;;;;;;33.95;23.48;;;6.60;99.90;;;;;;4995570;28;20450;-72
2022/04/30 07:48:15;;;;;;;43.67;26.13;;;6.70;99.90;;;;;;4996693;28;20563;-72
2022/04/30 07:50:45;;;;;;;34.72;23.70;;;6.80;99.90;;;;;;4996200;28;20595;-72
2022/04/30 07:53:14;;;;;;;39.22;26.02;;;6.90;99.90;;;;;;4995230;28;20061;-72
2022/04/30 07:55:42;;;;;;;33.13;24.70;;;6.70;99.90;;;;;;4997825;28;20068;-70
2022/04/30 07:58:09;;;;;;;39.85;23.40;;;6.70;99.90;;;;;;4998202;28;20050;-72
2022/04/30 08:00:37;;;;;;;45.03;24.17;;;6.70;99.90;;;;;;4995239;28;20380;-75
2022/04/30 08:03:03;;;;;;;34.00;25.17;;;6.70;99.90;;;;;;4978479;28;20058;-75
2022/04/30 08:05:31;;;;;;;40.22;24.50;;;6.80;99.90;;;;;;4977030;28;20042;-72
2022/04/30 08:07:58;;;;;;;27.13;21.48;;;6.90;99.90;;;;;;4989532;28;20049;-72
2022/04/30 08:10:25;;;;;;;28.88;20.55;;;6.70;99.90;;;;;;4995203;28;20052;-72
2022/04/30 08:12:56;;;;;;;26.52;21.60;;;6.50;99.90;;;;;;4994452;28;20053;-70
2022/04/30 08:15:24;;;;;;;34.33;23.02;;;6.60;99.90;;;;;;4997785;28;20558;-73
2022/04/30 08:17:54;;;;;;;35.42;24.67;;;6.70;99.90;;;;;;4996234;28;20062;-71
2022/04/30 08:20:21;;;;;;;32.05;24.30;;;6.90;99.90;;;;;;4998976;28;20054;-71
2022/04/30 08:22:48;;;;;;;30.40;21.17;;;7.00;99.90;;;;;;4994455;28;20377;-72
2022/04/30 08:25:15;;;;;;;32.80;24.00;;;7.10;99.90;;;;;;4993773;28;20573;-73
2022/04/30 08:27:42;;;;;;;23.52;19.90;;;7.10;99.90;;;;;;4994698;28;20061;-72
2022/04/30 08:30:10;;;;;;;29.23;23.50;;;7.10;99.90;;;;;;4997446;28;20475;-73
2022/04/30 08:32:37;;;;;;;32.92;24.15;;;7.00;99.90;;;;;;4986091;28;20052;-76
2022/04/30 08:35:04;;;;;;;29.52;25.13;;;7.10;99.90;;;;;;4996126;28;20753;-72
2022/04/30 08:37:52;;;;;;;31.85;23.33;;;7.10;99.90;;;;;;4998250;28;20583;-72
2022/04/30 08:40:19;;;;;;;35.10;23.98;;;7.20;99.90;;;;;;5008836;28;20591;-73
2022/04/30 08:42:46;;;;;;;29.08;23.35;;;7.20;99.90;;;;;;4994973;28;20125;-72
2022/04/30 08:45:13;;;;;;;28.85;22.90;;;7.30;99.90;;;;;;4977847;28;20049;-72
2022/04/30 08:47:43;;;;;;;27.83;23.45;;;7.30;99.90;;;;;;4995009;28;20145;-73
2022/04/30 08:50:12;;;;;;;31.60;25.13;;;7.30;99.90;;;;;;4985340;28;20479;-73
2022/04/30 08:52:40;;;;;;;29.05;23.60;;;7.30;99.90;;;;;;4974291;28;20054;-73
2022/04/30 08:55:09;;;;;;;26.42;22.58;;;7.40;99.90;;;;;;4977180;28;20046;-74
2022/04/30 08:57:36;;;;;;;26.55;23.50;;;7.30;99.90;;;;;;4995542;28;20391;-73
2022/04/30 09:00:04;;;;;;;32.28;24.45;;;7.30;99.90;;;;;;4994850;28;20054;-73
2022/04/30 09:02:31;;;;;;;31.42;22.92;;;7.50;99.90;;;;;;4986713;28;20072;-72
2022/04/30 09:04:58;;;;;;;25.73;22.85;;;7.70;99.90;;;;;;4975300;28;20351;-73
2022/04/30 09:07:26;;;;;;;25.77;21.83;;;7.80;99.90;;;;;;4996111;28;20050;-73
2022/04/30 09:09:58;;;;;;;24.95;22.33;;;7.80;99.90;;;;;;4998259;28;20152;-73
2022/04/30 09:12:27;;;;;;;25.65;22.92;;;7.70;99.90;;;;;;4997386;28;20389;-74
2022/04/30 09:14:54;;;;;;;30.42;22.27;;;7.80;99.90;;;;;;4994551;28;20057;-73
2022/04/30 09:17:24;;;;;;;27.73;24.10;;;7.80;99.90;;;;;;4993153;28;20056;-74
2022/04/30 09:19:59;;;;;;;30.85;24.65;;;7.90;99.90;;;;;;4995521;28;20053;-74
2022/04/30 09:22:36;;;;;;;25.60;22.88;;;7.90;99.90;;;;;;4993431;28;20048;-73
2022/04/30 09:25:07;;;;;;;26.35;23.75;;;7.80;99.90;;;;;;4992562;28;20060;-73
2022/04/30 09:27:54;;;;;;;27.52;24.83;;;7.90;99.90;;;;;;4993726;28;20188;-73
2022/04/30 09:30:28;;;;;;;28.73;26.10;;;8.00;99.90;;;;;;4993352;28;20065;-74
2022/04/30 09:33:05;;;;;;;28.60;25.90;;;8.10;99.90;;;;;;4973628;28;20065;-72
2022/04/30 09:38:23;;;;;;;30.48;25.02;;;8.10;99.90;;;;;;4996321;28;20622;-73
2022/04/30 09:40:58;;;;;;;25.50;23.05;;;8.30;99.90;;;;;;4993438;28;20084;-74
2022/04/30 09:43:29;;;;;;;;;;;8.30;99.90;;;;;;4995744;28;20048;-72
2022/04/30 09:46:07;;;;;;;27.80;25.17;;;8.40;99.90;;;;;;4990999;28;20461;-74
2022/04/30 09:54:07;;;;;;;23.50;21.30;;;8.60;99.90;;;;;;4991821;28;20732;-74
2022/04/30 09:56:39;;;;;;;26.50;23.65;;;8.60;99.90;;;;;;4992653;28;20079;-74
2022/04/30 09:59:11;;;;;;;25.58;23.20;;;8.60;99.90;;;;;;4992064;28;20076;-74
2022/04/30 10:01:41;;;;;;;25.15;22.98;;;8.70;99.90;;;;;;4991343;28;20129;-72
2022/04/30 10:04:13;;;;;;;26.90;24.73;;;9.00;99.90;;;;;;4984350;28;20060;-74
2022/04/30 10:06:45;;;;;;;25.23;22.80;;;9.00;99.90;;;;;;4993725;28;20057;-73
2022/04/30 10:09:26;;;;;;;26.30;24.08;;;9.10;99.90;;;;;;4994632;28;20304;-72
2022/04/30 10:11:56;;;;;;;25.20;22.95;;;9.20;99.90;;;;;;4997854;28;20115;-73
2022/04/30 10:14:50;;;;;;;26.23;23.40;;;9.20;99.90;;;;;;4991478;28;20636;-70
2022/04/30 10:17:20;;;;;;;24.38;22.40;;;9.00;99.90;;;;;;4990730;28;20646;-73
2022/04/30 10:19:57;;;;;;;26.02;23.85;;;8.90;99.90;;;;;;4991068;28;20065;-74
2022/04/30 10:22:24;;;;;;;25.88;23.33;;;8.80;99.90;;;;;;4992623;28;20057;-74
2022/04/30 10:24:54;;;;;;;28.00;25.25;;;9.00;99.90;;;;;;4990543;28;20041;-73
2022/04/30 10:27:22;;;;;;;27.63;25.08;;;9.20;99.90;;;;;;4990955;28;20050;-74
2022/04/30 10:29:56;;;;;;;25.88;23.88;;;9.40;99.90;;;;;;4992608;28;20450;-73
2022/04/30 10:32:30;;;;;;;28.08;25.52;;;9.60;99.90;;;;;;4990306;28;20629;-73
2022/04/30 10:34:58;;;;;;;27.20;25.40;;;9.70;99.90;;;;;;4955019;28;20054;-73
2022/04/30 10:37:34;;;;;;;27.65;25.13;;;9.80;99.90;;;;;;4989353;28;20250;-74
2022/04/30 10:40:06;;;;;;;28.75;26.52;;;9.90;99.90;;;;;;4988004;28;20056;-73
2022/04/30 10:42:44;;;;;;;29.27;26.38;;;9.80;99.90;;;;;;4973867;28;20079;-72
2022/04/30 10:45:15;;;;;;;26.73;24.00;;;9.70;99.90;;;;;;4990963;28;20065;-74
2022/04/30 10:47:53;;;;;;;27.33;25.05;;;9.90;99.90;;;;;;4992522;28;20042;-73
2022/04/30 10:50:20;;;;;;;27.20;24.85;;;10.00;99.90;;;;;;4991678;28;20208;-73
2022/04/30 10:52:50;;;;;;;27.25;25.05;;;9.90;99.90;;;;;;4975336;28;20061;-74
2022/04/30 10:55:22;;;;;;;26.45;24.45;;;9.70;99.90;;;;;;4990649;28;20054;-73
2022/04/30 10:57:49;;;;;;;28.52;26.50;;;9.90;99.90;;;;;;4994039;28;20050;-74
2022/04/30 11:00:16;;;;;;;26.08;24.00;;;10.00;99.90;;;;;;4991020;28;20157;-75
2022/04/30 11:02:50;;;;;;;26.52;24.33;;;10.00;99.90;;;;;;4977623;28;20053;-74
2022/04/30 11:05:19;;;;;;;25.80;23.83;;;10.20;99.90;;;;;;4988114;28;20124;-73
2022/04/30 11:07:47;;;;;;;25.95;23.85;;;10.40;99.90;;;;;;4974010;28;20578;-71
2022/04/30 11:10:13;;;;;;;27.45;25.25;;;10.30;99.90;;;;;;4988944;28;20050;-70
2022/04/30 11:12:41;;;;;;;26.85;24.33;;;10.00;99.90;;;;;;4990620;28;20168;-74
2022/04/30 11:15:09;;;;;;;26.58;24.77;;;9.90;99.90;;;;;;4989923;28;20050;-74
2022/04/30 11:17:44;;;;;;;27.48;25.33;;;10.40;99.90;;;;;;4994055;28;20050;-70
2022/04/30 11:20:21;;;;;;;28.10;25.85;;;10.50;99.90;;;;;;4992277;28;20751;-73
2022/04/30 11:23:02;;;;;;;27.15;25.13;;;10.60;99.90;;;;;;4990971;28;20054;-73
2022/04/30 11:25:36;;;;;;;26.70;24.73;;;10.60;99.90;;;;;;4970681;28;20133;-74
2022/04/30 11:28:08;;;;;;;27.73;25.58;;;10.60;99.90;;;;;;4955363;28;20058;-72
2022/04/30 11:30:39;;;;;;;27.83;25.45;;;10.70;99.90;;;;;;4973940;28;20128;-73
2022/04/30 11:33:07;;;;;;;28.05;25.65;;;10.50;99.90;;;;;;4989030;28;20434;-72
2022/04/30 11:35:35;;;;;;;28.17;26.23;;;10.60;99.90;;;;;;4990385;28;20184;-73
2022/04/30 11:38:07;;;;;;;28.05;26.02;;;10.60;99.90;;;;;;5007219;28;20065;-73
2022/04/30 11:40:34;;;;;;;27.08;25.20;;;10.50;99.90;;;;;;4992929;28;20057;-74
2022/04/30 11:43:02;;;;;;;27.80;26.05;;;10.50;99.90;;;;;;4987587;28;20488;-73
2022/04/30 11:45:31;;;;;;;28.50;26.50;;;9.90;99.90;;;;;;4967903;28;20060;-74
2022/04/30 11:47:58;;;;;;;28.20;25.83;;;10.10;99.90;;;;;;4990368;28;20061;-74
2022/04/30 11:50:27;;;;;;;28.00;26.10;;;10.30;99.90;;;;;;4977943;28;20054;-75
2022/04/30 11:52:54;;;;;;;28.25;26.15;;;10.50;99.90;;;;;;4979076;28;20467;-75
2022/04/30 11:55:21;;;;;;;29.00;26.55;;;10.60;99.90;;;;;;4990277;28;20275;-73
2022/04/30 11:57:49;;;;;;;27.40;25.40;;;10.60;99.90;;;;;;4991069;28;20590;-73
2022/04/30 12:00:19;;;;;;;27.58;25.13;;;10.60;99.90;;;;;;4992994;28;20273;-73
2022/04/30 12:02:47;;;;;;;27.77;25.77;;;10.50;99.90;;;;;;4992504;28;20061;-75
2022/04/30 12:05:15;;;;;;;26.40;24.75;;;10.50;99.90;;;;;;4994777;28;20534;-72
2022/04/30 12:07:45;;;;;;;26.95;24.85;;;10.60;99.90;;;;;;4996176;28;20518;-72
2022/04/30 12:10:24;;;;;;;28.63;26.60;;;10.50;99.90;;;;;;4992135;28;20042;-74
2022/04/30 12:12:52;;;;;;;27.95;25.95;;;10.40;99.90;;;;;;4992478;28;20053;-70
2022/04/30 12:15:25;;;;;;;26.70;24.73;;;10.40;99.90;;;;;;4989983;28;20053;-73
2022/04/30 12:26:54;;;;;;;26.75;24.85;;;10.80;99.90;;;;;;5018184;28;20440;-75
2022/04/30 12:29:22;;;;;;;;;;;10.70;99.90;;;;;;4996547;28;20128;-74
2022/04/30 12:31:51;;;;;;;24.77;22.63;;;10.80;99.90;;;;;;5017009;28;19931;-74
2022/04/30 12:34:22;;;;;;;24.88;22.98;;;10.80;99.90;;;;;;5035098;28;20112;-75
2022/04/30 12:36:57;;;;;;;26.40;24.17;;;10.80;99.90;;;;;;5015198;28;20144;-75
2022/04/30 12:39:25;;;;;;;26.08;24.08;;;10.70;99.90;;;;;;5017296;28;20427;-75
2022/04/30 12:41:53;;;;;;;24.90;23.15;;;10.60;99.90;;;;;;5016352;28;20249;-74
2022/04/30 12:44:21;;;;;;;26.05;24.00;;;10.80;99.90;;;;;;5027321;28;20299;-74
2022/04/30 12:46:49;;;;;;;25.63;23.83;;;10.90;99.90;;;;;;5045696;28;20761;-75
2022/04/30 12:49:17;;;;;;;27.35;25.48;;;10.90;99.90;;;;;;5068640;28;20049;-75
2022/04/30 12:51:46;;;;;;;27.73;25.13;;;11.00;99.90;;;;;;5036825;28;20127;-74
2022/04/30 12:54:14;;;;;;;28.08;25.67;;;10.90;99.90;;;;;;5028520;28;20040;-74
2022/04/30 12:56:41;;;;;;;27.42;25.23;;;10.90;99.90;;;;;;4999506;28;20544;-75
2022/04/30 12:59:08;;;;;;;26.48;24.30;;;10.90;99.90;;;;;;5030464;28;20073;-74
2022/04/30 13:01:35;;;;;;;26.90;24.77;;;10.80;99.90;;;;;;5014820;28;20577;-74
2022/04/30 13:04:03;;;;;;;27.55;25.55;;;10.90;99.90;;;;;;5014410;28;20606;-75
2022/04/30 13:06:30;;;;;;;28.05;25.95;;;10.80;99.90;;;;;;5013328;28;20107;-75
2022/04/30 13:14:28;;;;;;;30.27;28.10;;;11.00;99.90;;;;;;5013831;28;20045;-75
2022/04/30 13:16:55;;;;;;;30.42;28.10;;;11.00;99.90;;;;;;5015017;28;20049;-74
2022/04/30 13:19:22;;;;;;;31.80;29.38;;;10.60;99.90;;;;;;5016193;28;20132;-74
2022/04/30 13:21:49;;;;;;;31.13;28.75;;;10.60;99.90;;;;;;5013970;28;20495;-73
2022/04/30 13:24:16;;;;;;;30.45;28.33;;;10.70;99.90;;;;;;5004396;28;20053;-75
2022/04/30 13:26:44;;;;;;;30.98;28.63;;;10.80;99.90;;;;;;5010428;28;20072;-75
2022/04/30 13:29:11;;;;;;;31.77;29.58;;;10.80;99.90;;;;;;5007005;28;20050;-75
2022/04/30 13:31:38;;;;;;;31.70;29.63;;;10.70;99.90;;;;;;4992172;28;20581;-73
2022/04/30 13:34:06;;;;;;;33.45;30.73;;;10.70;99.90;;;;;;5002557;28;20085;-76
2022/04/30 13:36:33;;;;;;;34.45;31.55;;;10.70;99.90;;;;;;5009120;28;20037;-74